createdAt,value
2019-03-27T00:02:04.937Z,99.90
2019-03-27T00:04:34.906Z,99.90
2019-03-27T00:07:04.871Z,99.90
2019-03-27T00:09:34.869Z,99.90
2019-03-27T00:12:04.823Z,99.90
2019-03-27T00:14:37.660Z,99.90
2019-03-27T00:17:07.593Z,99.90
2019-03-27T00:19:37.633Z,99.90
2019-03-27T00:22:07.847Z,99.90
2019-03-27T00:24:40.036Z,99.90
2019-03-27T00:27:09.998Z,99.90
2019-03-27T00:29:39.951Z,99.90
2019-03-27T00:32:09.927Z,99.90
2019-03-27T00:34:39.898Z,99.90
2019-03-27T00:37:12.229Z,99.90
2019-03-27T00:39:42.151Z,99.90
2019-03-27T00:42:12.126Z,99.90
2019-03-27T00:44:42.111Z,99.90
2019-03-27T00:47:12.088Z,99.90
2019-03-27T00:49:42.191Z,99.90
2019-03-27T00:52:12.320Z,99.90
2019-03-27T00:54:42.279Z,99.90
2019-03-27T00:57:12.358Z,99.90
2019-03-27T00:59:42.519Z,99.90
2019-03-27T01:02:12.651Z,99.90
2019-03-27T01:04:42.772Z,99.90
2019-03-27T01:07:12.848Z,99.90
2019-03-27T01:09:42.788Z,99.90
2019-03-27T01:12:12.727Z,99.90
2019-03-27T01:14:42.671Z,99.90
2019-03-27T01:17:12.663Z,99.90
2019-03-27T01:19:42.672Z,99.90
2019-03-27T01:22:12.546Z,99.90
2019-03-27T01:24:42.598Z,99.90
2019-03-27T01:27:12.530Z,99.90
2019-03-27T01:29:42.439Z,99.90
2019-03-27T01:32:12.312Z,99.90
2019-03-27T01:34:42.246Z,99.90
2019-03-27T01:37:12.228Z,99.90
2019-03-27T01:39:42.122Z,99.90
2019-03-27T01:42:12.010Z,99.90
2019-03-27T01:44:42.047Z,99.90
2019-03-27T01:47:12.303Z,99.90
2019-03-27T01:49:42.227Z,99.90
2019-03-27T01:52:12.145Z,99.90
2019-03-27T01:54:42.102Z,99.90
2019-03-27T01:57:12.010Z,99.90
2019-03-27T01:59:41.879Z,99.90
2019-03-27T02:02:11.802Z,99.90
2019-03-27T02:04:41.845Z,99.90
2019-03-27T02:07:11.734Z,99.90
2019-03-27T02:09:41.694Z,99.90
2019-03-27T02:12:11.552Z,99.90
2019-03-27T02:14:41.608Z,99.90
2019-03-27T02:17:11.536Z,99.90
2019-03-27T02:19:41.455Z,99.90
2019-03-27T02:22:12.884Z,99.90
2019-03-27T02:24:42.824Z,99.90
2019-03-27T02:27:12.807Z,99.90
2019-03-27T02:29:42.860Z,99.90
2019-03-27T02:32:13.695Z,99.90
2019-03-27T02:34:43.697Z,99.90
2019-03-27T02:37:13.663Z,99.90
2019-03-27T02:39:43.626Z,99.90
2019-03-27T02:42:13.606Z,99.90
2019-03-27T02:44:43.488Z,99.90
2019-03-27T02:47:13.435Z,99.90
2019-03-27T02:49:43.326Z,99.90
2019-03-27T02:52:13.309Z,99.90
2019-03-27T02:54:43.467Z,99.90
2019-03-27T02:57:13.513Z,99.90
2019-03-27T02:59:43.421Z,99.90
2019-03-27T03:02:13.365Z,99.90
2019-03-27T03:04:43.303Z,99.90
2019-03-27T03:07:13.326Z,99.90
2019-03-27T03:09:43.259Z,99.90
2019-03-27T03:12:13.257Z,99.90
2019-03-27T03:14:43.295Z,99.90
2019-03-27T03:17:13.225Z,99.90
2019-03-27T03:19:43.174Z,99.90
2019-03-27T03:22:13.111Z,99.90
2019-03-27T03:24:45.272Z,99.90
2019-03-27T03:27:15.476Z,99.90
2019-03-27T03:29:45.471Z,99.90
2019-03-27T03:32:15.373Z,99.90
2019-03-27T03:34:45.270Z,99.90
2019-03-27T03:37:15.115Z,99.90
2019-03-27T03:39:45.025Z,99.90
2019-03-27T03:42:15.003Z,99.90
2019-03-27T03:44:45.047Z,99.90
2019-03-27T03:47:15.047Z,99.90
2019-03-27T03:49:44.939Z,99.90
2019-03-27T03:52:15.981Z,99.90
2019-03-27T03:54:46.148Z,99.90
2019-03-27T03:57:16.727Z,99.90
2019-03-27T03:59:48.030Z,99.90
2019-03-27T04:02:19.222Z,99.90
2019-03-27T04:04:50.377Z,99.90
2019-03-27T04:07:20.336Z,99.90
2019-03-27T04:09:50.408Z,99.90
2019-03-27T04:12:20.372Z,99.90
2019-03-27T04:14:50.262Z,99.90
2019-03-27T04:17:20.231Z,99.90
2019-03-27T04:19:50.125Z,99.90
2019-03-27T04:22:20.198Z,99.90
2019-03-27T04:24:50.103Z,99.90
2019-03-27T04:27:20.050Z,99.90
2019-03-27T04:29:50.008Z,99.90
2019-03-27T04:32:19.924Z,99.90
2019-03-27T04:34:49.868Z,99.90
2019-03-27T04:37:19.789Z,99.90
2019-03-27T04:39:49.690Z,99.90
2019-03-27T04:42:19.567Z,99.90
2019-03-27T04:44:49.528Z,99.90
2019-03-27T04:47:31.598Z,99.90
2019-03-27T04:49:51.135Z,99.90
2019-03-27T04:52:21.112Z,99.90
2019-03-27T04:54:51.075Z,99.90
2019-03-27T04:57:20.990Z,99.90
2019-03-27T04:59:50.917Z,99.90
2019-03-27T05:02:20.823Z,99.90
2019-03-27T05:04:51.043Z,99.90
2019-03-27T05:07:20.991Z,99.90
2019-03-27T05:09:50.904Z,99.90
2019-03-27T05:12:20.826Z,99.90
2019-03-27T05:14:50.734Z,99.90
2019-03-27T05:17:20.624Z,99.90
2019-03-27T05:19:50.596Z,99.90
2019-03-27T05:22:20.496Z,99.90
2019-03-27T05:24:50.309Z,99.90
2019-03-27T05:27:20.166Z,99.90
2019-03-27T05:29:50.072Z,99.90
2019-03-27T05:32:19.985Z,99.90
2019-03-27T05:34:49.942Z,99.90
2019-03-27T05:37:20.091Z,99.90
2019-03-27T05:39:50.271Z,99.90
2019-03-27T05:42:20.303Z,99.90
2019-03-27T05:44:50.247Z,99.90
2019-03-27T05:47:20.193Z,99.90
2019-03-27T05:49:50.111Z,99.90
2019-03-27T05:52:19.990Z,99.90
2019-03-27T05:54:49.935Z,99.90
2019-03-27T05:57:19.789Z,99.90
2019-03-27T05:59:49.946Z,99.90
2019-03-27T06:02:19.848Z,99.90
2019-03-27T06:04:49.775Z,99.90
2019-03-27T06:07:19.734Z,99.90
2019-03-27T06:09:49.695Z,99.90
2019-03-27T06:12:19.643Z,99.90
2019-03-27T06:14:49.588Z,99.90
2019-03-27T06:17:19.544Z,99.90
2019-03-27T06:19:50.243Z,99.90
2019-03-27T06:22:20.130Z,99.90
2019-03-27T06:24:50.040Z,99.90
2019-03-27T06:27:19.873Z,99.90
2019-03-27T06:29:49.843Z,99.90
2019-03-27T06:32:20.446Z,99.90
2019-03-27T06:34:50.372Z,99.90
2019-03-27T06:37:20.326Z,99.90
2019-03-27T06:39:50.400Z,99.90
2019-03-27T06:42:20.344Z,99.90
2019-03-27T06:44:50.273Z,99.90
2019-03-27T06:47:20.163Z,99.90
2019-03-27T06:49:50.068Z,99.90
2019-03-27T06:52:20.344Z,99.90
2019-03-27T06:54:50.428Z,99.90
2019-03-27T06:57:20.382Z,99.90
2019-03-27T06:59:51.077Z,99.90
2019-03-27T07:02:22.540Z,99.90
2019-03-27T07:04:52.524Z,99.90
2019-03-27T07:07:22.351Z,99.90
2019-03-27T07:09:52.290Z,99.10
2019-03-27T07:12:22.322Z,98.70
2019-03-27T07:14:52.389Z,98.00
2019-03-27T07:17:22.317Z,96.90
2019-03-27T07:19:52.211Z,96.50
2019-03-27T07:22:22.259Z,94.50
2019-03-27T07:24:52.214Z,93.60
2019-03-27T07:27:22.057Z,92.00
2019-03-27T07:29:52.043Z,90.40
2019-03-27T07:32:22.105Z,88.40
2019-03-27T07:34:52.163Z,87.30
2019-03-27T07:37:22.073Z,85.00
2019-03-27T07:39:52.168Z,83.40
2019-03-27T07:42:23.130Z,82.00
2019-03-27T07:44:53.173Z,80.00
2019-03-27T07:47:23.313Z,79.00
2019-03-27T07:49:53.137Z,77.80
2019-03-27T07:52:23.051Z,77.20
2019-03-27T07:54:53.110Z,76.00
2019-03-27T07:57:23.055Z,74.20
2019-03-27T07:59:53.017Z,72.70
2019-03-27T08:02:22.883Z,72.80
2019-03-27T08:04:52.744Z,71.80
2019-03-27T08:07:27.064Z,70.80
2019-03-27T08:09:54.164Z,69.80
2019-03-27T08:12:24.222Z,68.60
2019-03-27T08:14:54.371Z,67.40
2019-03-27T08:17:24.261Z,66.70
2019-03-27T08:19:54.126Z,66.50
2019-03-27T08:22:24.109Z,65.40
2019-03-27T08:24:54.049Z,63.80
2019-03-27T08:27:23.982Z,63.90
2019-03-27T08:29:54.004Z,62.90
2019-03-27T08:32:24.076Z,61.40
2019-03-27T08:34:54.374Z,61.20
2019-03-27T08:37:24.649Z,60.90
2019-03-27T08:39:54.496Z,59.70
2019-03-27T08:42:24.436Z,59.70
2019-03-27T08:44:54.440Z,59.80
2019-03-27T08:47:24.503Z,59.30
2019-03-27T08:49:54.581Z,59.00
2019-03-27T08:52:24.621Z,59.80
2019-03-27T08:54:54.581Z,59.70
2019-03-27T08:57:24.831Z,59.50
2019-03-27T08:59:54.922Z,59.50
2019-03-27T09:02:25.881Z,58.70
2019-03-27T09:04:55.875Z,58.60
2019-03-27T09:07:25.964Z,58.50
2019-03-27T09:09:55.896Z,58.00
2019-03-27T09:12:25.741Z,58.10
2019-03-27T09:14:55.609Z,56.90
2019-03-27T09:17:25.568Z,56.60
2019-03-27T09:19:55.435Z,56.10
2019-03-27T09:22:25.411Z,55.90
2019-03-27T09:24:55.379Z,55.30
2019-03-27T09:27:25.279Z,55.60
2019-03-27T09:29:55.231Z,54.90
2019-03-27T09:32:25.207Z,54.30
2019-03-27T09:34:55.195Z,55.00
2019-03-27T09:37:25.147Z,54.90
2019-03-27T09:39:55.076Z,55.40
2019-03-27T09:42:25.020Z,54.80
2019-03-27T09:44:54.937Z,54.10
2019-03-27T09:47:24.809Z,54.60
2019-03-27T09:49:54.810Z,53.50
2019-03-27T09:52:24.678Z,53.30
2019-03-27T09:54:54.649Z,51.80
2019-03-27T09:57:24.482Z,52.40
2019-03-27T09:59:54.463Z,52.10
2019-03-27T10:02:24.275Z,52.20
2019-03-27T10:04:55.961Z,52.60
2019-03-27T10:07:25.707Z,52.10
2019-03-27T10:09:55.645Z,52.60
2019-03-27T10:12:25.558Z,50.00
2019-03-27T10:14:55.419Z,50.70
2019-03-27T10:17:25.355Z,52.10
2019-03-27T10:20:03.331Z,52.40
2019-03-27T10:22:26.825Z,51.00
2019-03-27T10:24:56.667Z,51.60
2019-03-27T10:27:29.200Z,51.70
2019-03-27T10:29:59.105Z,52.80
2019-03-27T10:32:29.023Z,51.90
2019-03-27T10:34:58.943Z,50.80
2019-03-27T10:37:28.871Z,50.50
2019-03-27T10:39:58.923Z,50.70
2019-03-27T10:42:28.935Z,49.70
2019-03-27T10:44:58.843Z,48.20
2019-03-27T10:47:28.845Z,49.60
2019-03-27T10:49:58.767Z,50.00
2019-03-27T10:52:28.591Z,50.60
2019-03-27T10:54:58.442Z,50.90
2019-03-27T10:57:28.502Z,49.00
2019-03-27T10:59:58.533Z,49.70
2019-03-27T11:02:29.012Z,48.30
2019-03-27T11:04:59.353Z,49.00
2019-03-27T11:07:29.341Z,49.50
2019-03-27T11:09:59.478Z,49.40
2019-03-27T11:12:29.374Z,49.40
2019-03-27T11:14:59.171Z,50.10
2019-03-27T11:17:29.224Z,49.30
2019-03-27T11:19:59.151Z,48.80
2019-03-27T11:22:29.044Z,49.00
2019-03-27T11:24:58.990Z,49.50
2019-03-27T11:27:28.964Z,49.70
2019-03-27T11:29:58.818Z,49.30
2019-03-27T11:32:28.825Z,50.70
2019-03-27T11:34:58.798Z,49.40
2019-03-27T11:37:28.892Z,48.70
2019-03-27T11:39:58.795Z,47.80
2019-03-27T11:42:29.136Z,47.50
2019-03-27T11:44:59.034Z,48.70
2019-03-27T11:47:29.026Z,49.00
2019-03-27T11:49:58.885Z,48.30
2019-03-27T11:52:29.809Z,49.00
2019-03-27T11:54:59.899Z,49.40
2019-03-27T11:57:29.930Z,48.20
2019-03-27T11:59:59.990Z,50.10
2019-03-27T12:02:29.936Z,48.80
2019-03-27T12:04:59.995Z,48.10
2019-03-27T12:07:30.073Z,49.80
2019-03-27T12:10:00.176Z,49.90
2019-03-27T12:12:30.152Z,47.80
2019-03-27T12:15:00.377Z,46.40
2019-03-27T12:17:30.685Z,46.90
2019-03-27T12:20:01.871Z,47.40
2019-03-27T12:22:31.982Z,47.50
2019-03-27T12:25:01.851Z,46.80
2019-03-27T12:27:32.044Z,47.10
2019-03-27T12:30:01.909Z,47.80
2019-03-27T12:32:31.772Z,49.10
2019-03-27T12:35:01.719Z,48.10
2019-03-27T12:37:31.887Z,47.40
2019-03-27T12:40:01.857Z,48.10
2019-03-27T12:42:31.861Z,47.20
2019-03-27T12:45:02.365Z,48.40
2019-03-27T12:47:32.559Z,47.50
2019-03-27T12:50:02.564Z,47.50
2019-03-27T12:52:32.474Z,46.10
2019-03-27T12:55:02.432Z,47.30
2019-03-27T12:57:32.330Z,47.10
2019-03-27T13:00:02.393Z,48.20
2019-03-27T13:02:32.282Z,48.70
2019-03-27T13:05:02.260Z,49.20
2019-03-27T13:07:32.147Z,50.60
2019-03-27T13:10:02.071Z,49.90
2019-03-27T13:12:32.035Z,48.00
2019-03-27T13:15:02.011Z,48.40
2019-03-27T13:17:34.204Z,48.60
2019-03-27T13:20:03.544Z,48.40
2019-03-27T13:22:33.453Z,48.20
2019-03-27T13:25:03.346Z,48.00
2019-03-27T13:27:33.390Z,49.20
2019-03-27T13:30:03.335Z,49.50
2019-03-27T13:32:33.405Z,50.40
2019-03-27T13:35:03.267Z,50.40
2019-03-27T13:37:33.295Z,50.10
2019-03-27T13:40:03.371Z,51.00
2019-03-27T13:42:33.358Z,51.90
2019-03-27T13:45:03.478Z,52.90
2019-03-27T13:47:33.370Z,51.90
2019-03-27T13:50:06.137Z,52.90
2019-03-27T13:52:35.952Z,53.80
2019-03-27T13:55:06.667Z,54.20
2019-03-27T13:57:36.668Z,52.90
2019-03-27T14:00:08.862Z,52.90
2019-03-27T14:02:38.777Z,52.90
2019-03-27T14:05:09.389Z,54.60
2019-03-27T14:07:39.347Z,53.50
2019-03-27T14:10:09.439Z,53.90
2019-03-27T14:12:39.372Z,54.50
2019-03-27T14:15:10.051Z,54.70
2019-03-27T14:17:39.928Z,55.90
2019-03-27T14:20:11.053Z,55.20
2019-03-27T14:22:43.170Z,55.80
2019-03-27T14:25:13.760Z,55.80
2019-03-27T14:27:45.338Z,55.80
2019-03-27T14:30:17.461Z,55.70
2019-03-27T14:32:47.468Z,55.00
2019-03-27T14:35:17.597Z,55.30
2019-03-27T14:37:47.761Z,55.60
2019-03-27T14:40:18.135Z,56.40
2019-03-27T14:42:48.048Z,57.90
2019-03-27T14:45:17.984Z,58.10
2019-03-27T14:47:48.070Z,56.90
2019-03-27T14:50:18.228Z,56.70
2019-03-27T14:52:51.105Z,57.20
2019-03-27T14:55:21.066Z,56.30
2019-03-27T14:57:51.064Z,57.10
2019-03-27T15:00:21.342Z,58.00
2019-03-27T15:02:51.280Z,57.50
2019-03-27T15:05:21.954Z,57.40
2019-03-27T15:07:51.991Z,57.50
2019-03-27T15:10:21.865Z,58.50
2019-03-27T15:12:51.787Z,58.70
2019-03-27T15:15:22.051Z,57.20
2019-03-27T15:17:51.991Z,59.40
2019-03-27T15:20:21.810Z,57.90
2019-03-27T15:22:51.716Z,57.30
2019-03-27T15:25:21.675Z,57.70
2019-03-27T15:27:51.668Z,59.20
2019-03-27T15:30:21.818Z,58.20
2019-03-27T15:32:51.769Z,58.80
2019-03-27T15:35:21.692Z,58.70
2019-03-27T15:37:51.649Z,58.90
2019-03-27T15:40:46.610Z,58.50
2019-03-27T15:43:16.565Z,59.20
2019-03-27T15:45:46.431Z,59.30
2019-03-27T15:48:16.390Z,58.70
2019-03-27T15:50:55.559Z,58.90
2019-03-27T15:53:18.302Z,60.00
2019-03-27T15:55:48.301Z,59.80
2019-03-27T15:58:18.257Z,59.50
2019-03-27T16:00:48.106Z,59.60
2019-03-27T16:03:17.955Z,61.30
2019-03-27T16:05:47.807Z,60.50
2019-03-27T16:08:17.774Z,60.90
2019-03-27T16:10:47.760Z,60.80
2019-03-27T16:13:17.910Z,61.60
2019-03-27T16:15:47.905Z,61.70
2019-03-27T16:18:17.837Z,61.60
2019-03-27T16:20:48.054Z,62.00
2019-03-27T16:23:17.942Z,62.70
2019-03-27T16:25:47.814Z,63.40
2019-03-27T16:28:17.812Z,63.50
2019-03-27T16:30:49.164Z,63.90
2019-03-27T16:33:19.381Z,64.10
2019-03-27T16:35:50.125Z,64.90
2019-03-27T16:38:37.450Z,63.80
2019-03-27T16:41:07.789Z,64.90
2019-03-27T16:43:39.458Z,64.50
2019-03-27T16:46:18.482Z,64.70
2019-03-27T16:48:48.923Z,64.70
2019-03-27T16:51:18.855Z,64.70
2019-03-27T16:54:16.869Z,66.00
2019-03-27T16:56:48.503Z,65.50
2019-03-27T16:59:18.816Z,65.20
2019-03-27T17:01:48.751Z,64.90
2019-03-27T17:04:18.661Z,65.30
2019-03-27T17:06:49.844Z,65.50
2019-03-27T17:09:19.889Z,65.70
2019-03-27T17:11:59.299Z,65.90
2019-03-27T17:14:29.462Z,66.30
2019-03-27T17:17:34.050Z,66.40
2019-03-27T17:20:04.408Z,66.70
2019-03-27T17:22:34.622Z,67.10
2019-03-27T17:25:09.759Z,68.70
2019-03-27T17:27:40.381Z,68.70
2019-03-27T17:30:11.732Z,69.00
2019-03-27T17:32:41.887Z,69.10
2019-03-27T17:35:11.698Z,69.20
2019-03-27T17:37:41.515Z,69.60
2019-03-27T17:40:12.475Z,69.60
2019-03-27T17:42:42.284Z,70.00
2019-03-27T17:45:13.269Z,70.30
2019-03-27T17:47:43.160Z,70.60
2019-03-27T17:50:13.715Z,70.80
2019-03-27T17:52:43.868Z,71.10
2019-03-27T17:55:14.243Z,71.50
2019-03-27T17:57:44.121Z,71.90
2019-03-27T18:00:17.283Z,72.10
2019-03-27T18:02:47.042Z,72.50
2019-03-27T18:05:16.933Z,72.70
2019-03-27T18:07:49.862Z,73.10
2019-03-27T18:10:19.637Z,73.10
2019-03-27T18:12:49.435Z,73.20
2019-03-27T18:15:19.190Z,73.40
2019-03-27T18:17:49.059Z,73.50
2019-03-27T18:20:18.885Z,73.40
2019-03-27T18:22:50.019Z,73.20
2019-03-27T18:25:20.034Z,73.30
2019-03-27T18:27:49.982Z,73.30
2019-03-27T18:30:19.793Z,73.50
2019-03-27T18:32:49.626Z,73.40
2019-03-27T18:35:20.508Z,73.80
2019-03-27T18:37:50.298Z,73.80
2019-03-27T18:40:20.112Z,74.10
2019-03-27T18:42:49.845Z,74.40
2019-03-27T18:45:20.410Z,74.30
2019-03-27T18:47:52.350Z,74.20
2019-03-27T18:50:22.200Z,74.20
2019-03-27T18:52:51.920Z,74.10
2019-03-27T18:55:26.621Z,74.00
2019-03-27T18:57:59.907Z,74.10
2019-03-27T19:00:26.108Z,74.60
2019-03-27T19:02:56.306Z,74.90
2019-03-27T19:05:26.242Z,75.50
2019-03-27T19:07:56.161Z,75.90
2019-03-27T19:10:26.097Z,76.30
2019-03-27T19:12:55.862Z,76.50
2019-03-27T19:15:25.659Z,76.50
2019-03-27T19:17:55.407Z,77.00
2019-03-27T19:20:27.618Z,77.30
2019-03-27T19:22:57.416Z,77.80
2019-03-27T19:25:28.722Z,78.00
2019-03-27T19:27:58.569Z,78.30
2019-03-27T19:30:28.528Z,78.40
2019-03-27T19:32:58.304Z,78.50
2019-03-27T19:35:28.211Z,78.80
2019-03-27T19:37:58.043Z,79.00
2019-03-27T19:40:28.909Z,79.10
2019-03-27T19:42:58.734Z,79.40
2019-03-27T19:45:28.550Z,79.80
2019-03-27T19:47:58.438Z,80.10
2019-03-27T19:50:28.350Z,80.30
2019-03-27T19:52:58.213Z,80.30
2019-03-27T19:55:27.988Z,80.50
2019-03-27T19:57:57.741Z,80.80
2019-03-27T20:00:27.862Z,81.00
2019-03-27T20:02:57.950Z,81.20
2019-03-27T20:05:27.689Z,81.40
2019-03-27T20:07:57.501Z,81.60
2019-03-27T20:10:27.442Z,81.60
2019-03-27T20:12:57.282Z,81.90
2019-03-27T20:15:27.201Z,82.10
2019-03-27T20:17:57.006Z,82.30
2019-03-27T20:20:26.874Z,82.60
2019-03-27T20:22:56.595Z,82.80
2019-03-27T20:25:29.503Z,83.00
2019-03-27T20:27:59.759Z,83.40
2019-03-27T20:30:29.931Z,84.10
2019-03-27T20:33:00.009Z,83.30
2019-03-27T20:35:29.862Z,83.20
2019-03-27T20:37:59.705Z,83.60
2019-03-27T20:40:29.638Z,83.70
2019-03-27T20:42:59.433Z,84.00
2019-03-27T20:45:29.184Z,84.20
2019-03-27T20:47:59.002Z,84.50
2019-03-27T20:50:29.097Z,85.00
2019-03-27T20:52:58.982Z,85.20
2019-03-27T20:55:30.529Z,85.40
2019-03-27T20:58:00.199Z,85.90
2019-03-27T21:00:29.951Z,86.40
2019-03-27T21:02:59.868Z,86.40
2019-03-27T21:05:29.694Z,86.70
2019-03-27T21:08:00.023Z,87.00
2019-03-27T21:10:29.835Z,87.10
2019-03-27T21:12:59.623Z,87.30
2019-03-27T21:15:29.460Z,87.40
2019-03-27T21:17:59.267Z,87.60
2019-03-27T21:20:29.037Z,87.80
2019-03-27T21:22:59.102Z,87.90
2019-03-27T21:25:31.922Z,87.80
2019-03-27T21:28:02.026Z,88.30
2019-03-27T21:30:31.943Z,88.60
2019-03-27T21:33:01.858Z,89.40
2019-03-27T21:35:31.691Z,89.90
2019-03-27T21:38:01.545Z,90.10
2019-03-27T21:40:31.358Z,90.30
2019-03-27T21:43:01.194Z,90.40
2019-03-27T21:45:32.457Z,90.40
2019-03-27T21:48:02.403Z,90.40
2019-03-27T21:50:32.241Z,90.50
2019-03-27T21:53:04.475Z,90.60
2019-03-27T21:55:42.571Z,90.60
2019-03-27T21:58:07.717Z,90.70
2019-03-27T22:00:38.698Z,90.90
2019-03-27T22:03:08.935Z,91.10
2019-03-27T22:05:38.773Z,91.10
2019-03-27T22:08:08.571Z,91.10
2019-03-27T22:10:38.409Z,91.40
2019-03-27T22:13:08.191Z,91.60
2019-03-27T22:15:37.967Z,91.80
2019-03-27T22:18:07.800Z,92.00
2019-03-27T22:20:39.630Z,92.20
2019-03-27T22:23:09.223Z,92.30
2019-03-27T22:25:41.719Z,92.50
2019-03-27T22:28:11.464Z,92.70
2019-03-27T22:30:41.308Z,92.80
2019-03-27T22:33:11.107Z,93.00
2019-03-27T22:35:41.223Z,93.10
2019-03-27T22:38:10.992Z,93.20
2019-03-27T22:40:40.738Z,93.40
2019-03-27T22:43:10.561Z,93.70
2019-03-27T22:45:40.331Z,93.90
2019-03-27T22:48:10.202Z,94.10
2019-03-27T22:50:40.155Z,94.30
2019-03-27T22:53:11.485Z,94.50
2019-03-27T22:55:49.706Z,94.70
2019-03-27T22:58:13.185Z,95.00
2019-03-27T23:00:51.205Z,95.50
2019-03-27T23:03:24.287Z,95.40
2019-03-27T23:05:54.068Z,95.50
2019-03-27T23:08:25.374Z,95.90
2019-03-27T23:10:55.227Z,96.10
2019-03-27T23:13:25.182Z,96.30
2019-03-27T23:15:55.296Z,96.50
2019-03-27T23:18:25.181Z,96.80
2019-03-27T23:20:55.304Z,97.40
2019-03-27T23:23:25.172Z,98.00
2019-03-27T23:26:02.899Z,98.40
2019-03-27T23:28:29.530Z,99.00
2019-03-27T23:30:59.407Z,99.40
2019-03-27T23:33:29.581Z,99.70
2019-03-27T23:35:59.430Z,99.90
2019-03-27T23:38:29.279Z,99.90
2019-03-27T23:40:59.081Z,99.90
2019-03-27T23:43:29.021Z,99.90
2019-03-27T23:45:59.035Z,99.90
2019-03-27T23:48:28.910Z,99.90
2019-03-27T23:50:59.033Z,99.90
2019-03-27T23:53:29.077Z,99.90
2019-03-27T23:55:58.909Z,99.90
2019-03-27T23:58:28.778Z,99.90
